sensor_id;sensor_type;location;lat;lon;timestamp;P1;durP1;ratioP1;P2;durP2;ratioP2
8885;SDS011;4479;51.162;13.906;2023-05-18T00:05:14;2.63;;;1.30;;
8885;SDS011;4479;51.162;13.906;2023-05-18T00:15:19;3.23;;;1.43;;
8885;SDS011;4479;51.162;13.906;2023-05-18T00:25:21;4.10;;;1.40;;
8885;SDS011;4479;51.162;13.906;2023-05-18T00:35:25;5.10;;;1.30;;
8885;SDS011;4479;51.162;13.906;2023-05-18T00:45:28;3.70;;;1.43;;
8885;SDS011;4479;51.162;13.906;2023-05-18T00:55:32;4.13;;;1.30;;
8885;SDS011;4479;51.162;13.906;2023-05-18T01:05:35;1.77;;;1.13;;
8885;SDS011;4479;51.162;13.906;2023-05-18T01:15:38;2.47;;;1.10;;
8885;SDS011;4479;51.162;13.906;2023-05-18T01:25:45;1.70;;;1.10;;
8885;SDS011;4479;51.162;13.906;2023-05-18T01:35:52;3.20;;;1.10;;
8885;SDS011;4479;51.162;13.906;2023-05-18T01:45:55;1.90;;;1.20;;
8885;SDS011;4479;51.162;13.906;2023-05-18T01:56:04;2.57;;;1.30;;
8885;SDS011;4479;51.162;13.906;2023-05-18T02:06:08;4.47;;;1.20;;
8885;SDS011;4479;51.162;13.906;2023-05-18T02:16:13;1.67;;;1.13;;
8885;SDS011;4479;51.162;13.906;2023-05-18T02:26:16;2.47;;;1.30;;
8885;SDS011;4479;51.162;13.906;2023-05-18T02:36:27;1.90;;;1.10;;
8885;SDS011;4479;51.162;13.906;2023-05-18T02:46:36;3.20;;;1.10;;
8885;SDS011;4479;51.162;13.906;2023-05-18T02:56:41;3.17;;;1.20;;
8885;SDS011;4479;51.162;13.906;2023-05-18T03:06:57;5.40;;;1.20;;
8885;SDS011;4479;51.162;13.906;2023-05-18T03:17:03;1.30;;;1.10;;
8885;SDS011;4479;51.162;13.906;2023-05-18T03:27:06;4.17;;;1.17;;
8885;SDS011;4479;51.162;13.906;2023-05-18T03:37:10;1.67;;;1.10;;
8885;SDS011;4479;51.162;13.906;2023-05-18T03:47:15;1.83;;;1.10;;
8885;SDS011;4479;51.162;13.906;2023-05-18T03:57:23;3.10;;;1.10;;
8885;SDS011;4479;51.162;13.906;2023-05-18T04:07:29;1.60;;;1.20;;
8885;SDS011;4479;51.162;13.906;2023-05-18T04:17:35;2.83;;;1.17;;
8885;SDS011;4479;51.162;13.906;2023-05-18T04:27:45;1.60;;;1.07;;
8885;SDS011;4479;51.162;13.906;2023-05-18T04:37:51;1.30;;;1.00;;
8885;SDS011;4479;51.162;13.906;2023-05-18T04:47:55;3.57;;;1.50;;
8885;SDS011;4479;51.162;13.906;2023-05-18T04:58:00;1.70;;;1.23;;
8885;SDS011;4479;51.162;13.906;2023-05-18T05:08:04;4.03;;;1.90;;
8885;SDS011;4479;51.162;13.906;2023-05-18T05:18:12;3.87;;;1.80;;
8885;SDS011;4479;51.162;13.906;2023-05-18T05:28:18;2.70;;;1.60;;
8885;SDS011;4479;51.162;13.906;2023-05-18T05:38:26;3.97;;;1.53;;
8885;SDS011;4479;51.162;13.906;2023-05-18T05:48:28;5.63;;;1.80;;
8885;SDS011;4479;51.162;13.906;2023-05-18T05:58:33;3.03;;;1.60;;
8885;SDS011;4479;51.162;13.906;2023-05-18T06:08:35;3.53;;;1.90;;
8885;SDS011;4479;51.162;13.906;2023-05-18T06:18:44;3.23;;;1.63;;
8885;SDS011;4479;51.162;13.906;2023-05-18T06:28:48;3.33;;;1.13;;
8885;SDS011;4479;51.162;13.906;2023-05-18T06:39:18;2.93;;;1.30;;
8885;SDS011;4479;51.162;13.906;2023-05-18T06:49:20;3.47;;;1.30;;
8885;SDS011;4479;51.162;13.906;2023-05-18T06:59:24;3.63;;;1.20;;
8885;SDS011;4479;51.162;13.906;2023-05-18T07:09:27;4.50;;;1.20;;
8885;SDS011;4479;51.162;13.906;2023-05-18T07:19:31;5.10;;;1.20;;
8885;SDS011;4479;51.162;13.906;2023-05-18T07:29:34;3.47;;;1.30;;
8885;SDS011;4479;51.162;13.906;2023-05-18T07:39:37;5.70;;;1.40;;
8885;SDS011;4479;51.162;13.906;2023-05-18T07:49:40;2.83;;;1.30;;
8885;SDS011;4479;51.162;13.906;2023-05-18T07:59:44;3.47;;;1.40;;
8885;SDS011;4479;51.162;13.906;2023-05-18T08:09:47;5.20;;;1.50;;
8885;SDS011;4479;51.162;13.906;2023-05-18T08:19:50;3.57;;;1.50;;
8885;SDS011;4479;51.162;13.906;2023-05-18T08:29:53;2.30;;;1.30;;
8885;SDS011;4479;51.162;13.906;2023-05-18T08:40:00;6.13;;;1.50;;
8885;SDS011;4479;51.162;13.906;2023-05-18T08:50:04;2.80;;;1.30;;
8885;SDS011;4479;51.162;13.906;2023-05-18T09:00:09;3.23;;;1.43;;
8885;SDS011;4479;51.162;13.906;2023-05-18T09:10:12;3.57;;;1.27;;
8885;SDS011;4479;51.162;13.906;2023-05-18T09:20:16;4.27;;;1.20;;
8885;SDS011;4479;51.162;13.906;2023-05-18T09:30:20;3.30;;;1.20;;
8885;SDS011;4479;51.162;13.906;2023-05-18T09:40:27;4.40;;;1.40;;
8885;SDS011;4479;51.162;13.906;2023-05-18T09:50:30;2.60;;;1.17;;
8885;SDS011;4479;51.162;13.906;2023-05-18T10:00:39;6.53;;;1.10;;
8885;SDS011;4479;51.162;13.906;2023-05-18T10:10:45;2.43;;;1.20;;
8885;SDS011;4479;51.162;13.906;2023-05-18T10:20:51;4.80;;;1.40;;
8885;SDS011;4479;51.162;13.906;2023-05-18T10:30:55;3.17;;;1.07;;
8885;SDS011;4479;51.162;13.906;2023-05-18T10:40:59;2.60;;;1.20;;
8885;SDS011;4479;51.162;13.906;2023-05-18T10:51:02;2.10;;;1.03;;
8885;SDS011;4479;51.162;13.906;2023-05-18T11:01:09;2.50;;;1.00;;
8885;SDS011;4479;51.162;13.906;2023-05-18T11:11:12;2.10;;;1.00;;
8885;SDS011;4479;51.162;13.906;2023-05-18T11:21:30;1.77;;;0.93;;
8885;SDS011;4479;51.162;13.906;2023-05-18T11:31:50;1.83;;;0.90;;
8885;SDS011;4479;51.162;13.906;2023-05-18T11:42:01;2.80;;;1.00;;
8885;SDS011;4479;51.162;13.906;2023-05-18T11:52:07;2.63;;;1.27;;
8885;SDS011;4479;51.162;13.906;2023-05-18T12:02:18;1.90;;;1.07;;
8885;SDS011;4479;51.162;13.906;2023-05-18T12:12:22;3.67;;;1.30;;
8885;SDS011;4479;51.162;13.906;2023-05-18T12:22:26;3.37;;;1.47;;
8885;SDS011;4479;51.162;13.906;2023-05-18T12:32:29;4.10;;;1.20;;
8885;SDS011;4479;51.162;13.906;2023-05-18T12:42:32;2.50;;;1.37;;
8885;SDS011;4479;51.162;13.906;2023-05-18T12:52:35;3.13;;;1.00;;
8885;SDS011;4479;51.162;13.906;2023-05-18T13:02:39;3.47;;;1.20;;
8885;SDS011;4479;51.162;13.906;2023-05-18T13:12:42;2.00;;;1.03;;
8885;SDS011;4479;51.162;13.906;2023-05-18T13:22:47;2.87;;;1.10;;
8885;SDS011;4479;51.162;13.906;2023-05-18T13:32:50;3.57;;;1.00;;
8885;SDS011;4479;51.162;13.906;2023-05-18T13:42:54;2.80;;;1.10;;
8885;SDS011;4479;51.162;13.906;2023-05-18T13:52:56;2.70;;;1.47;;
8885;SDS011;4479;51.162;13.906;2023-05-18T14:03:00;3.00;;;1.20;;
8885;SDS011;4479;51.162;13.906;2023-05-18T14:13:02;3.17;;;1.30;;
8885;SDS011;4479;51.162;13.906;2023-05-18T14:23:06;1.97;;;1.03;;
8885;SDS011;4479;51.162;13.906;2023-05-18T14:33:08;2.70;;;1.40;;
8885;SDS011;4479;51.162;13.906;2023-05-18T14:43:12;1.83;;;1.27;;
8885;SDS011;4479;51.162;13.906;2023-05-18T14:53:14;3.23;;;1.10;;
8885;SDS011;4479;51.162;13.906;2023-05-18T15:03:18;2.60;;;1.50;;
8885;SDS011;4479;51.162;13.906;2023-05-18T15:13:20;3.47;;;1.30;;
8885;SDS011;4479;51.162;13.906;2023-05-18T15:23:24;2.83;;;1.20;;
8885;SDS011;4479;51.162;13.906;2023-05-18T15:33:26;1.67;;;1.10;;
8885;SDS011;4479;51.162;13.906;2023-05-18T15:43:30;1.70;;;1.10;;
8885;SDS011;4479;51.162;13.906;2023-05-18T15:53:32;1.80;;;1.27;;
8885;SDS011;4479;51.162;13.906;2023-05-18T16:03:36;2.17;;;1.20;;
8885;SDS011;4479;51.162;13.906;2023-05-18T16:13:42;2.90;;;1.57;;
8885;SDS011;4479;51.162;13.906;2023-05-18T16:23:48;5.53;;;1.40;;
8885;SDS011;4479;51.162;13.906;2023-05-18T16:33:50;1.50;;;1.20;;
8885;SDS011;4479;51.162;13.906;2023-05-18T16:43:54;2.17;;;0.87;;
8885;SDS011;4479;51.162;13.906;2023-05-18T16:53:57;1.33;;;0.80;;
8885;SDS011;4479;51.162;13.906;2023-05-18T17:04:00;2.00;;;0.80;;
8885;SDS011;4479;51.162;13.906;2023-05-18T17:14:03;1.83;;;0.90;;
8885;SDS011;4479;51.162;13.906;2023-05-18T17:24:06;2.60;;;1.20;;
8885;SDS011;4479;51.162;13.906;2023-05-18T17:34:09;2.17;;;1.13;;
8885;SDS011;4479;51.162;13.906;2023-05-18T17:44:20;1.33;;;0.87;;
8885;SDS011;4479;51.162;13.906;2023-05-18T17:54:34;4.00;;;1.00;;
8885;SDS011;4479;51.162;13.906;2023-05-18T18:04:38;3.80;;;1.43;;
8885;SDS011;4479;51.162;13.906;2023-05-18T18:14:40;4.80;;;2.70;;
8885;SDS011;4479;51.162;13.906;2023-05-18T18:24:44;2.67;;;1.73;;
8885;SDS011;4479;51.162;13.906;2023-05-18T18:34:46;2.57;;;1.80;;
8885;SDS011;4479;51.162;13.906;2023-05-18T18:44:50;2.50;;;1.40;;
8885;SDS011;4479;51.162;13.906;2023-05-18T18:54:55;2.47;;;1.70;;
8885;SDS011;4479;51.162;13.906;2023-05-18T19:04:59;2.67;;;1.30;;
8885;SDS011;4479;51.162;13.906;2023-05-18T19:15:03;1.90;;;1.00;;
8885;SDS011;4479;51.162;13.906;2023-05-18T19:25:07;1.10;;;1.00;;
8885;SDS011;4479;51.162;13.906;2023-05-18T19:35:10;2.30;;;1.60;;
8885;SDS011;4479;51.162;13.906;2023-05-18T19:45:14;3.37;;;1.60;;
8885;SDS011;4479;51.162;13.906;2023-05-18T19:55:16;1.60;;;1.50;;
8885;SDS011;4479;51.162;13.906;2023-05-18T20:05:21;1.70;;;1.40;;
8885;SDS011;4479;51.162;13.906;2023-05-18T20:15:24;3.07;;;1.70;;
8885;SDS011;4479;51.162;13.906;2023-05-18T20:25:30;2.87;;;1.87;;
8885;SDS011;4479;51.162;13.906;2023-05-18T20:35:33;2.03;;;1.40;;
8885;SDS011;4479;51.162;13.906;2023-05-18T20:56:08;2.40;;;1.80;;
8885;SDS011;4479;51.162;13.906;2023-05-18T21:06:12;6.70;;;4.60;;
8885;SDS011;4479;51.162;13.906;2023-05-18T21:16:14;5.93;;;4.63;;
8885;SDS011;4479;51.162;13.906;2023-05-18T21:26:19;4.47;;;3.47;;
8885;SDS011;4479;51.162;13.906;2023-05-18T21:36:24;5.50;;;3.50;;
8885;SDS011;4479;51.162;13.906;2023-05-18T21:46:34;7.00;;;3.73;;
8885;SDS011;4479;51.162;13.906;2023-05-18T21:56:36;5.67;;;2.97;;
8885;SDS011;4479;51.162;13.906;2023-05-18T22:06:40;4.20;;;2.97;;
8885;SDS011;4479;51.162;13.906;2023-05-18T22:16:42;4.77;;;2.60;;
8885;SDS011;4479;51.162;13.906;2023-05-18T22:26:45;2.10;;;1.80;;
8885;SDS011;4479;51.162;13.906;2023-05-18T22:36:48;3.83;;;1.83;;
8885;SDS011;4479;51.162;13.906;2023-05-18T22:46:51;2.93;;;1.97;;
8885;SDS011;4479;51.162;13.906;2023-05-18T22:56:53;2.03;;;1.80;;
8885;SDS011;4479;51.162;13.906;2023-05-18T23:06:59;2.17;;;1.80;;
8885;SDS011;4479;51.162;13.906;2023-05-18T23:17:03;1.93;;;1.50;;
8885;SDS011;4479;51.162;13.906;2023-05-18T23:27:06;1.70;;;1.50;;
8885;SDS011;4479;51.162;13.906;2023-05-18T23:37:08;1.80;;;1.37;;
8885;SDS011;4479;51.162;13.906;2023-05-18T23:47:14;1.80;;;1.43;;
8885;SDS011;4479;51.162;13.906;2023-05-18T23:57:17;1.60;;;1.50;;
